sensor_id;sensor_type;location;lat;lon;timestamp;temperature;humidity
12688;DHT22;6408;59.388;17.798;2022-07-23T00:00:21;17.50;99.90
12688;DHT22;6408;59.388;17.798;2022-07-23T00:02:48;17.40;99.90
12688;DHT22;6408;59.388;17.798;2022-07-23T00:05:16;17.40;99.90
12688;DHT22;6408;59.388;17.798;2022-07-23T00:07:44;17.40;99.90
12688;DHT22;6408;59.388;17.798;2022-07-23T00:10:12;17.50;99.90
12688;DHT22;6408;59.388;17.798;2022-07-23T00:12:39;17.50;99.90
12688;DHT22;6408;59.388;17.798;2022-07-23T00:15:07;17.40;99.90
12688;DHT22;6408;59.388;17.798;2022-07-23T00:17:34;17.30;99.90
12688;DHT22;6408;59.388;17.798;2022-07-23T00:20:02;17.30;99.90
12688;DHT22;6408;59.388;17.798;2022-07-23T00:22:29;17.20;99.90
12688;DHT22;6408;59.388;17.798;2022-07-23T00:24:58;17.30;99.90
12688;DHT22;6408;59.388;17.798;2022-07-23T00:27:25;17.20;99.90
12688;DHT22;6408;59.388;17.798;2022-07-23T00:29:53;17.10;99.90
12688;DHT22;6408;59.388;17.798;2022-07-23T00:32:20;17.20;99.90
12688;DHT22;6408;59.388;17.798;2022-07-23T00:34:52;17.10;99.90
12688;DHT22;6408;59.388;17.798;2022-07-23T00:37:19;17.00;99.90
12688;DHT22;6408;59.388;17.798;2022-07-23T00:39:46;17.00;99.90
12688;DHT22;6408;59.388;17.798;2022-07-23T00:42:14;16.90;99.90
12688;DHT22;6408;59.388;17.798;2022-07-23T00:44:42;16.90;99.90
12688;DHT22;6408;59.388;17.798;2022-07-23T00:47:09;16.80;99.90
12688;DHT22;6408;59.388;17.798;2022-07-23T00:49:36;16.80;99.90
12688;DHT22;6408;59.388;17.798;2022-07-23T00:52:03;16.70;99.90
12688;DHT22;6408;59.388;17.798;2022-07-23T00:54:31;16.70;99.90
12688;DHT22;6408;59.388;17.798;2022-07-23T00:56:59;16.60;99.90
12688;DHT22;6408;59.388;17.798;2022-07-23T00:59:28;16.60;99.90
12688;DHT22;6408;59.388;17.798;2022-07-23T01:01:55;16.50;99.90
12688;DHT22;6408;59.388;17.798;2022-07-23T01:04:23;16.60;99.90
12688;DHT22;6408;59.388;17.798;2022-07-23T01:06:50;16.70;99.90
12688;DHT22;6408;59.388;17.798;2022-07-23T01:09:20;16.60;99.90
12688;DHT22;6408;59.388;17.798;2022-07-23T01:11:47;16.50;99.90
12688;DHT22;6408;59.388;17.798;2022-07-23T01:14:16;16.50;99.90
12688;DHT22;6408;59.388;17.798;2022-07-23T01:16:45;16.40;99.90
12688;DHT22;6408;59.388;17.798;2022-07-23T01:19:13;16.30;99.90
12688;DHT22;6408;59.388;17.798;2022-07-23T01:21:44;16.30;99.90
12688;DHT22;6408;59.388;17.798;2022-07-23T01:24:16;16.40;99.90
12688;DHT22;6408;59.388;17.798;2022-07-23T01:26:45;16.30;99.90
12688;DHT22;6408;59.388;17.798;2022-07-23T01:29:13;16.20;99.90
12688;DHT22;6408;59.388;17.798;2022-07-23T01:31:40;16.10;99.90
12688;DHT22;6408;59.388;17.798;2022-07-23T01:34:07;16.10;99.90
12688;DHT22;6408;59.388;17.798;2022-07-23T01:36:34;16.00;99.90
12688;DHT22;6408;59.388;17.798;2022-07-23T01:39:02;15.90;99.90
12688;DHT22;6408;59.388;17.798;2022-07-23T01:41:30;15.90;99.90
12688;DHT22;6408;59.388;17.798;2022-07-23T01:43:57;16.10;99.90
12688;DHT22;6408;59.388;17.798;2022-07-23T01:46:24;16.00;99.90
12688;DHT22;6408;59.388;17.798;2022-07-23T01:48:51;16.00;99.90
12688;DHT22;6408;59.388;17.798;2022-07-23T01:51:18;16.00;99.90
12688;DHT22;6408;59.388;17.798;2022-07-23T01:53:45;16.00;99.90
12688;DHT22;6408;59.388;17.798;2022-07-23T01:56:11;15.90;99.90
12688;DHT22;6408;59.388;17.798;2022-07-23T01:58:41;15.90;99.90
12688;DHT22;6408;59.388;17.798;2022-07-23T02:01:09;15.90;99.90
12688;DHT22;6408;59.388;17.798;2022-07-23T02:03:35;15.90;99.90
12688;DHT22;6408;59.388;17.798;2022-07-23T02:06:02;15.90;99.90
12688;DHT22;6408;59.388;17.798;2022-07-23T02:08:29;15.90;99.90
12688;DHT22;6408;59.388;17.798;2022-07-23T02:10:56;16.00;99.90
12688;DHT22;6408;59.388;17.798;2022-07-23T02:13:23;15.90;99.90
12688;DHT22;6408;59.388;17.798;2022-07-23T02:15:51;16.00;99.90
12688;DHT22;6408;59.388;17.798;2022-07-23T02:18:18;16.00;99.90
12688;DHT22;6408;59.388;17.798;2022-07-23T02:20:45;15.80;99.90
12688;DHT22;6408;59.388;17.798;2022-07-23T02:23:12;15.80;99.90
12688;DHT22;6408;59.388;17.798;2022-07-23T02:25:39;15.70;99.90
12688;DHT22;6408;59.388;17.798;2022-07-23T02:28:07;15.70;99.90
12688;DHT22;6408;59.388;17.798;2022-07-23T02:30:34;15.70;99.90
12688;DHT22;6408;59.388;17.798;2022-07-23T02:33:02;15.60;99.90
12688;DHT22;6408;59.388;17.798;2022-07-23T02:35:28;15.60;99.90
12688;DHT22;6408;59.388;17.798;2022-07-23T02:37:55;15.50;99.90
12688;DHT22;6408;59.388;17.798;2022-07-23T02:40:22;15.50;99.90
12688;DHT22;6408;59.388;17.798;2022-07-23T02:42:49;15.50;99.90
12688;DHT22;6408;59.388;17.798;2022-07-23T02:45:16;15.40;99.90
12688;DHT22;6408;59.388;17.798;2022-07-23T02:47:42;15.50;99.90
12688;DHT22;6408;59.388;17.798;2022-07-23T02:50:10;15.50;99.90
12688;DHT22;6408;59.388;17.798;2022-07-23T02:52:37;15.50;99.90
12688;DHT22;6408;59.388;17.798;2022-07-23T02:55:05;15.50;99.90
12688;DHT22;6408;59.388;17.798;2022-07-23T02:57:32;15.50;99.90
12688;DHT22;6408;59.388;17.798;2022-07-23T02:59:59;15.50;99.90
12688;DHT22;6408;59.388;17.798;2022-07-23T03:02:25;15.50;99.90
12688;DHT22;6408;59.388;17.798;2022-07-23T03:04:52;15.50;99.90
12688;DHT22;6408;59.388;17.798;2022-07-23T03:07:20;15.50;99.90
12688;DHT22;6408;59.388;17.798;2022-07-23T03:09:47;15.50;99.90
12688;DHT22;6408;59.388;17.798;2022-07-23T03:12:14;15.50;99.90
12688;DHT22;6408;59.388;17.798;2022-07-23T03:14:41;15.50;99.90
12688;DHT22;6408;59.388;17.798;2022-07-23T03:17:08;15.60;99.90
12688;DHT22;6408;59.388;17.798;2022-07-23T03:19:35;15.50;99.90
12688;DHT22;6408;59.388;17.798;2022-07-23T03:22:03;15.50;99.90
12688;DHT22;6408;59.388;17.798;2022-07-23T03:24:31;15.60;99.90
12688;DHT22;6408;59.388;17.798;2022-07-23T03:27:12;15.70;99.90
12688;DHT22;6408;59.388;17.798;2022-07-23T03:29:39;15.70;99.90
12688;DHT22;6408;59.388;17.798;2022-07-23T03:32:06;15.70;99.90
12688;DHT22;6408;59.388;17.798;2022-07-23T03:34:33;15.70;99.90
12688;DHT22;6408;59.388;17.798;2022-07-23T03:37:00;15.70;99.90
12688;DHT22;6408;59.388;17.798;2022-07-23T03:39:26;15.70;99.90
12688;DHT22;6408;59.388;17.798;2022-07-23T03:41:54;15.70;99.90
12688;DHT22;6408;59.388;17.798;2022-07-23T03:44:21;15.80;99.90
12688;DHT22;6408;59.388;17.798;2022-07-23T03:46:48;15.80;99.90
12688;DHT22;6408;59.388;17.798;2022-07-23T03:49:15;15.80;99.90
12688;DHT22;6408;59.388;17.798;2022-07-23T03:51:42;15.70;99.90
12688;DHT22;6408;59.388;17.798;2022-07-23T03:54:09;15.70;99.90
12688;DHT22;6408;59.388;17.798;2022-07-23T03:56:36;15.70;99.90
12688;DHT22;6408;59.388;17.798;2022-07-23T03:59:08;15.70;99.90
12688;DHT22;6408;59.388;17.798;2022-07-23T04:01:35;15.70;99.90
12688;DHT22;6408;59.388;17.798;2022-07-23T04:04:02;15.70;99.90
12688;DHT22;6408;59.388;17.798;2022-07-23T04:06:29;15.70;99.90
12688;DHT22;6408;59.388;17.798;2022-07-23T04:08:56;15.70;99.90
12688;DHT22;6408;59.388;17.798;2022-07-23T04:11:23;15.70;99.90
12688;DHT22;6408;59.388;17.798;2022-07-23T04:13:50;15.70;99.90
12688;DHT22;6408;59.388;17.798;2022-07-23T04:16:18;15.70;99.90
12688;DHT22;6408;59.388;17.798;2022-07-23T04:18:45;15.80;99.90
12688;DHT22;6408;59.388;17.798;2022-07-23T04:21:11;15.90;99.90
12688;DHT22;6408;59.388;17.798;2022-07-23T04:23:38;15.90;99.90
12688;DHT22;6408;59.388;17.798;2022-07-23T04:26:05;15.90;99.90
12688;DHT22;6408;59.388;17.798;2022-07-23T04:28:32;15.90;99.90
12688;DHT22;6408;59.388;17.798;2022-07-23T04:30:59;15.90;99.90
12688;DHT22;6408;59.388;17.798;2022-07-23T04:33:27;16.00;99.90
12688;DHT22;6408;59.388;17.798;2022-07-23T04:35:54;16.00;99.90
12688;DHT22;6408;59.388;17.798;2022-07-23T04:38:21;16.00;99.90
12688;DHT22;6408;59.388;17.798;2022-07-23T04:40:47;15.90;99.90
12688;DHT22;6408;59.388;17.798;2022-07-23T04:43:14;16.00;99.90
12688;DHT22;6408;59.388;17.798;2022-07-23T04:45:41;16.00;99.90
12688;DHT22;6408;59.388;17.798;2022-07-23T04:48:07;16.00;99.90
12688;DHT22;6408;59.388;17.798;2022-07-23T04:50:36;15.90;99.90
12688;DHT22;6408;59.388;17.798;2022-07-23T04:53:02;15.90;99.90
12688;DHT22;6408;59.388;17.798;2022-07-23T04:55:29;15.90;99.90
12688;DHT22;6408;59.388;17.798;2022-07-23T04:57:56;15.90;99.90
12688;DHT22;6408;59.388;17.798;2022-07-23T05:00:23;16.00;99.90
12688;DHT22;6408;59.388;17.798;2022-07-23T05:02:50;16.00;99.90
12688;DHT22;6408;59.388;17.798;2022-07-23T05:05:16;16.00;99.90
12688;DHT22;6408;59.388;17.798;2022-07-23T05:07:44;16.10;99.90
12688;DHT22;6408;59.388;17.798;2022-07-23T05:10:11;16.00;99.90
12688;DHT22;6408;59.388;17.798;2022-07-23T05:12:38;16.10;99.90
12688;DHT22;6408;59.388;17.798;2022-07-23T05:15:05;16.10;99.90
12688;DHT22;6408;59.388;17.798;2022-07-23T05:17:32;16.00;99.90
12688;DHT22;6408;59.388;17.798;2022-07-23T05:19:58;16.10;99.90
12688;DHT22;6408;59.388;17.798;2022-07-23T05:22:25;16.20;99.90
12688;DHT22;6408;59.388;17.798;2022-07-23T05:24:54;16.20;99.90
12688;DHT22;6408;59.388;17.798;2022-07-23T05:27:20;16.20;99.90
12688;DHT22;6408;59.388;17.798;2022-07-23T05:29:47;16.20;99.90
12688;DHT22;6408;59.388;17.798;2022-07-23T05:32:14;16.20;99.90
12688;DHT22;6408;59.388;17.798;2022-07-23T05:34:41;16.30;99.90
12688;DHT22;6408;59.388;17.798;2022-07-23T05:37:07;16.20;99.90
12688;DHT22;6408;59.388;17.798;2022-07-23T05:39:34;16.10;99.90
12688;DHT22;6408;59.388;17.798;2022-07-23T05:42:02;16.10;99.90
12688;DHT22;6408;59.388;17.798;2022-07-23T05:44:29;16.20;99.90
12688;DHT22;6408;59.388;17.798;2022-07-23T05:46:56;16.20;99.90
12688;DHT22;6408;59.388;17.798;2022-07-23T05:49:23;16.20;99.90
12688;DHT22;6408;59.388;17.798;2022-07-23T05:51:49;16.20;99.90
12688;DHT22;6408;59.388;17.798;2022-07-23T05:54:16;16.30;99.90
12688;DHT22;6408;59.388;17.798;2022-07-23T05:56:43;16.40;99.90
12688;DHT22;6408;59.388;17.798;2022-07-23T05:59:11;16.60;99.90
12688;DHT22;6408;59.388;17.798;2022-07-23T06:01:40;16.70;99.90
12688;DHT22;6408;59.388;17.798;2022-07-23T06:04:07;16.90;99.90
12688;DHT22;6408;59.388;17.798;2022-07-23T06:06:34;17.00;99.90
12688;DHT22;6408;59.388;17.798;2022-07-23T06:09:00;17.10;99.90
12688;DHT22;6408;59.388;17.798;2022-07-23T06:11:27;17.10;99.90
12688;DHT22;6408;59.388;17.798;2022-07-23T06:13:55;17.20;99.90
12688;DHT22;6408;59.388;17.798;2022-07-23T06:16:23;17.20;99.90
12688;DHT22;6408;59.388;17.798;2022-07-23T06:18:49;17.20;99.90
12688;DHT22;6408;59.388;17.798;2022-07-23T06:21:16;17.40;99.90
12688;DHT22;6408;59.388;17.798;2022-07-23T06:23:43;17.60;99.90
12688;DHT22;6408;59.388;17.798;2022-07-23T06:26:09;17.70;99.90
12688;DHT22;6408;59.388;17.798;2022-07-23T06:28:36;17.80;99.90
12688;DHT22;6408;59.388;17.798;2022-07-23T06:31:03;17.70;99.90
12688;DHT22;6408;59.388;17.798;2022-07-23T06:33:31;17.80;99.90
12688;DHT22;6408;59.388;17.798;2022-07-23T06:35:58;17.80;99.90
12688;DHT22;6408;59.388;17.798;2022-07-23T06:38:24;17.80;99.90
12688;DHT22;6408;59.388;17.798;2022-07-23T06:40:51;18.00;99.90
12688;DHT22;6408;59.388;17.798;2022-07-23T06:43:18;18.10;99.90
12688;DHT22;6408;59.388;17.798;2022-07-23T06:45:45;18.10;99.90
12688;DHT22;6408;59.388;17.798;2022-07-23T06:48:11;18.00;99.90
12688;DHT22;6408;59.388;17.798;2022-07-23T06:50:39;17.90;99.90
12688;DHT22;6408;59.388;17.798;2022-07-23T06:53:06;17.80;99.90
12688;DHT22;6408;59.388;17.798;2022-07-23T06:55:33;17.70;99.90
12688;DHT22;6408;59.388;17.798;2022-07-23T06:58:03;17.70;99.90
12688;DHT22;6408;59.388;17.798;2022-07-23T07:00:30;17.70;99.90
12688;DHT22;6408;59.388;17.798;2022-07-23T07:02:57;17.70;99.90
12688;DHT22;6408;59.388;17.798;2022-07-23T07:05:25;17.80;99.90
12688;DHT22;6408;59.388;17.798;2022-07-23T07:07:54;17.80;99.90
12688;DHT22;6408;59.388;17.798;2022-07-23T07:10:21;18.00;99.90
12688;DHT22;6408;59.388;17.798;2022-07-23T07:12:48;18.10;99.90
12688;DHT22;6408;59.388;17.798;2022-07-23T07:15:15;18.20;99.90
12688;DHT22;6408;59.388;17.798;2022-07-23T07:17:42;18.20;99.90
12688;DHT22;6408;59.388;17.798;2022-07-23T07:20:10;18.30;99.90
12688;DHT22;6408;59.388;17.798;2022-07-23T07:22:37;18.20;99.90
12688;DHT22;6408;59.388;17.798;2022-07-23T07:25:05;18.30;99.90
12688;DHT22;6408;59.388;17.798;2022-07-23T07:27:32;18.00;99.90
12688;DHT22;6408;59.388;17.798;2022-07-23T07:29:59;17.70;99.90
12688;DHT22;6408;59.388;17.798;2022-07-23T07:32:26;17.70;99.90
12688;DHT22;6408;59.388;17.798;2022-07-23T07:34:53;17.70;99.90
12688;DHT22;6408;59.388;17.798;2022-07-23T07:37:20;17.70;99.90
12688;DHT22;6408;59.388;17.798;2022-07-23T07:39:46;17.70;99.90
12688;DHT22;6408;59.388;17.798;2022-07-23T07:42:14;17.60;99.90
12688;DHT22;6408;59.388;17.798;2022-07-23T07:44:41;17.50;99.90
12688;DHT22;6408;59.388;17.798;2022-07-23T07:47:08;17.50;99.90
12688;DHT22;6408;59.388;17.798;2022-07-23T07:49:35;17.50;99.90
12688;DHT22;6408;59.388;17.798;2022-07-23T07:52:01;17.50;99.90
12688;DHT22;6408;59.388;17.798;2022-07-23T07:54:28;17.70;99.90
12688;DHT22;6408;59.388;17.798;2022-07-23T07:56:55;17.80;99.90
12688;DHT22;6408;59.388;17.798;2022-07-23T07:59:23;17.70;99.90
12688;DHT22;6408;59.388;17.798;2022-07-23T08:01:50;17.70;99.90
12688;DHT22;6408;59.388;17.798;2022-07-23T08:04:17;17.60;99.90
12688;DHT22;6408;59.388;17.798;2022-07-23T08:06:44;17.50;99.90
12688;DHT22;6408;59.388;17.798;2022-07-23T08:09:11;17.50;99.90
12688;DHT22;6408;59.388;17.798;2022-07-23T08:11:38;17.50;99.90
12688;DHT22;6408;59.388;17.798;2022-07-23T08:14:05;17.70;99.90
12688;DHT22;6408;59.388;17.798;2022-07-23T08:16:33;17.80;99.90
12688;DHT22;6408;59.388;17.798;2022-07-23T08:19:00;17.70;99.90
12688;DHT22;6408;59.388;17.798;2022-07-23T08:21:26;17.60;99.90
12688;DHT22;6408;59.388;17.798;2022-07-23T08:23:53;17.60;99.90
12688;DHT22;6408;59.388;17.798;2022-07-23T08:26:20;17.80;99.90
12688;DHT22;6408;59.388;17.798;2022-07-23T08:28:47;17.90;99.90
12688;DHT22;6408;59.388;17.798;2022-07-23T08:31:13;18.00;99.90
12688;DHT22;6408;59.388;17.798;2022-07-23T08:33:43;18.10;99.90
12688;DHT22;6408;59.388;17.798;2022-07-23T08:36:10;18.10;99.90
12688;DHT22;6408;59.388;17.798;2022-07-23T08:38:36;18.10;99.90
12688;DHT22;6408;59.388;17.798;2022-07-23T08:41:03;18.00;99.90
12688;DHT22;6408;59.388;17.798;2022-07-23T08:43:32;17.90;99.90
12688;DHT22;6408;59.388;17.798;2022-07-23T08:46:01;17.80;99.90
12688;DHT22;6408;59.388;17.798;2022-07-23T08:48:30;17.90;99.90
12688;DHT22;6408;59.388;17.798;2022-07-23T08:51:00;18.00;99.90
12688;DHT22;6408;59.388;17.798;2022-07-23T08:53:28;18.10;99.90
12688;DHT22;6408;59.388;17.798;2022-07-23T08:55:57;18.20;99.90
12688;DHT22;6408;59.388;17.798;2022-07-23T08:58:25;18.10;99.90
12688;DHT22;6408;59.388;17.798;2022-07-23T09:00:52;18.10;99.90
12688;DHT22;6408;59.388;17.798;2022-07-23T09:03:20;18.00;99.90
12688;DHT22;6408;59.388;17.798;2022-07-23T09:05:49;18.00;99.90
12688;DHT22;6408;59.388;17.798;2022-07-23T09:08:19;17.80;99.90
12688;DHT22;6408;59.388;17.798;2022-07-23T09:10:49;17.80;99.90
12688;DHT22;6408;59.388;17.798;2022-07-23T09:13:35;17.70;99.90
12688;DHT22;6408;59.388;17.798;2022-07-23T09:16:05;17.70;99.90
12688;DHT22;6408;59.388;17.798;2022-07-23T09:18:39;17.60;99.90
12688;DHT22;6408;59.388;17.798;2022-07-23T09:21:22;17.60;99.90
12688;DHT22;6408;59.388;17.798;2022-07-23T09:23:56;17.50;99.90
12688;DHT22;6408;59.388;17.798;2022-07-23T09:26:32;17.40;99.90
12688;DHT22;6408;59.388;17.798;2022-07-23T09:29:05;17.50;99.90
12688;DHT22;6408;59.388;17.798;2022-07-23T09:31:43;17.40;99.90
12688;DHT22;6408;59.388;17.798;2022-07-23T09:34:13;17.40;99.90
12688;DHT22;6408;59.388;17.798;2022-07-23T09:36:40;17.30;99.90
12688;DHT22;6408;59.388;17.798;2022-07-23T09:39:09;17.30;99.90
12688;DHT22;6408;59.388;17.798;2022-07-23T09:41:39;17.20;99.90
12688;DHT22;6408;59.388;17.798;2022-07-23T09:44:20;17.30;99.90
12688;DHT22;6408;59.388;17.798;2022-07-23T09:46:50;17.30;99.90
12688;DHT22;6408;59.388;17.798;2022-07-23T09:49:23;17.20;99.90
12688;DHT22;6408;59.388;17.798;2022-07-23T09:51:55;17.20;99.90
12688;DHT22;6408;59.388;17.798;2022-07-23T09:54:27;17.20;99.90
12688;DHT22;6408;59.388;17.798;2022-07-23T09:56:57;17.10;99.90
12688;DHT22;6408;59.388;17.798;2022-07-23T09:59:25;17.20;99.90
12688;DHT22;6408;59.388;17.798;2022-07-23T10:01:54;17.30;99.90
12688;DHT22;6408;59.388;17.798;2022-07-23T10:04:22;17.40;99.90
12688;DHT22;6408;59.388;17.798;2022-07-23T10:06:52;17.40;99.90
12688;DHT22;6408;59.388;17.798;2022-07-23T10:09:25;17.50;99.90
12688;DHT22;6408;59.388;17.798;2022-07-23T10:11:55;17.60;99.90
12688;DHT22;6408;59.388;17.798;2022-07-23T10:14:26;17.60;99.90
12688;DHT22;6408;59.388;17.798;2022-07-23T10:16:57;17.70;99.90
12688;DHT22;6408;59.388;17.798;2022-07-23T10:19:24;17.60;99.90
12688;DHT22;6408;59.388;17.798;2022-07-23T10:21:54;17.60;99.90
12688;DHT22;6408;59.388;17.798;2022-07-23T10:24:41;17.70;99.90
12688;DHT22;6408;59.388;17.798;2022-07-23T10:27:30;17.60;99.90
12688;DHT22;6408;59.388;17.798;2022-07-23T10:30:02;17.70;99.90
12688;DHT22;6408;59.388;17.798;2022-07-23T10:32:40;17.70;99.90
12688;DHT22;6408;59.388;17.798;2022-07-23T10:35:18;17.70;99.90
12688;DHT22;6408;59.388;17.798;2022-07-23T10:37:48;17.80;99.90
12688;DHT22;6408;59.388;17.798;2022-07-23T10:40:18;17.70;99.90
12688;DHT22;6408;59.388;17.798;2022-07-23T10:42:47;17.50;99.90
12688;DHT22;6408;59.388;17.798;2022-07-23T10:45:26;17.30;99.90
12688;DHT22;6408;59.388;17.798;2022-07-23T10:47:55;17.20;99.90
12688;DHT22;6408;59.388;17.798;2022-07-23T10:50:25;17.10;99.90
12688;DHT22;6408;59.388;17.798;2022-07-23T10:53:15;17.10;99.90
12688;DHT22;6408;59.388;17.798;2022-07-23T10:55:47;17.10;99.90
12688;DHT22;6408;59.388;17.798;2022-07-23T10:58:19;17.20;99.90
12688;DHT22;6408;59.388;17.798;2022-07-23T11:00:46;17.10;99.90
12688;DHT22;6408;59.388;17.798;2022-07-23T11:03:31;17.20;99.90
12688;DHT22;6408;59.388;17.798;2022-07-23T11:05:58;17.20;99.90
12688;DHT22;6408;59.388;17.798;2022-07-23T11:08:25;17.30;99.90
12688;DHT22;6408;59.388;17.798;2022-07-23T11:10:56;17.20;99.90
12688;DHT22;6408;59.388;17.798;2022-07-23T11:13:41;17.20;99.90
12688;DHT22;6408;59.388;17.798;2022-07-23T11:16:13;17.20;99.90
12688;DHT22;6408;59.388;17.798;2022-07-23T11:19:07;17.20;99.90
12688;DHT22;6408;59.388;17.798;2022-07-23T11:21:47;17.20;99.90
12688;DHT22;6408;59.388;17.798;2022-07-23T11:24:19;17.10;99.90
12688;DHT22;6408;59.388;17.798;2022-07-23T11:26:59;17.10;99.90
12688;DHT22;6408;59.388;17.798;2022-07-23T11:29:43;17.00;99.90
12688;DHT22;6408;59.388;17.798;2022-07-23T11:32:28;16.90;99.90
12688;DHT22;6408;59.388;17.798;2022-07-23T11:34:55;16.90;99.90
12688;DHT22;6408;59.388;17.798;2022-07-23T11:37:37;16.80;99.90
12688;DHT22;6408;59.388;17.798;2022-07-23T11:40:07;16.90;99.90
12688;DHT22;6408;59.388;17.798;2022-07-23T11:42:37;16.90;99.90
12688;DHT22;6408;59.388;17.798;2022-07-23T11:45:06;17.00;99.90
12688;DHT22;6408;59.388;17.798;2022-07-23T11:47:33;17.10;99.90
12688;DHT22;6408;59.388;17.798;2022-07-23T11:50:03;17.10;99.90
12688;DHT22;6408;59.388;17.798;2022-07-23T11:52:33;17.10;99.90
12688;DHT22;6408;59.388;17.798;2022-07-23T11:55:02;17.10;99.90
12688;DHT22;6408;59.388;17.798;2022-07-23T11:57:31;17.20;99.90
12688;DHT22;6408;59.388;17.798;2022-07-23T12:00:03;17.20;99.90
12688;DHT22;6408;59.388;17.798;2022-07-23T12:02:31;17.30;99.90
12688;DHT22;6408;59.388;17.798;2022-07-23T12:04:58;17.30;99.90
12688;DHT22;6408;59.388;17.798;2022-07-23T12:07:30;17.40;99.90
12688;DHT22;6408;59.388;17.798;2022-07-23T12:09:58;17.30;99.90
12688;DHT22;6408;59.388;17.798;2022-07-23T12:12:25;17.20;99.90
12688;DHT22;6408;59.388;17.798;2022-07-23T12:14:54;17.00;99.90
12688;DHT22;6408;59.388;17.798;2022-07-23T12:17:28;17.00;99.90
12688;DHT22;6408;59.388;17.798;2022-07-23T12:19:57;17.00;99.90
12688;DHT22;6408;59.388;17.798;2022-07-23T12:22:26;17.10;99.90
12688;DHT22;6408;59.388;17.798;2022-07-23T12:25:00;17.20;99.90
12688;DHT22;6408;59.388;17.798;2022-07-23T12:27:28;17.40;99.90
12688;DHT22;6408;59.388;17.798;2022-07-23T12:29:55;17.40;99.90
12688;DHT22;6408;59.388;17.798;2022-07-23T12:32:24;17.50;99.90
12688;DHT22;6408;59.388;17.798;2022-07-23T12:35:03;17.50;99.90
12688;DHT22;6408;59.388;17.798;2022-07-23T12:37:32;17.50;99.90
12688;DHT22;6408;59.388;17.798;2022-07-23T12:40:22;17.60;99.90
12688;DHT22;6408;59.388;17.798;2022-07-23T12:42:50;17.60;99.90
12688;DHT22;6408;59.388;17.798;2022-07-23T12:45:18;17.50;99.90
12688;DHT22;6408;59.388;17.798;2022-07-23T12:47:54;17.50;99.90
12688;DHT22;6408;59.388;17.798;2022-07-23T12:50:38;17.40;99.90
12688;DHT22;6408;59.388;17.798;2022-07-23T12:53:07;17.50;99.90
12688;DHT22;6408;59.388;17.798;2022-07-23T12:55:35;17.50;99.90
12688;DHT22;6408;59.388;17.798;2022-07-23T12:58:11;17.60;99.90
12688;DHT22;6408;59.388;17.798;2022-07-23T13:00:59;17.70;99.90
12688;DHT22;6408;59.388;17.798;2022-07-23T13:03:42;17.80;99.90
12688;DHT22;6408;59.388;17.798;2022-07-23T13:06:11;17.80;99.90
12688;DHT22;6408;59.388;17.798;2022-07-23T13:08:38;17.60;99.90
12688;DHT22;6408;59.388;17.798;2022-07-23T13:11:06;17.70;99.90
12688;DHT22;6408;59.388;17.798;2022-07-23T13:13:34;17.70;99.90
12688;DHT22;6408;59.388;17.798;2022-07-23T13:16:02;17.70;99.90
12688;DHT22;6408;59.388;17.798;2022-07-23T13:18:29;17.70;99.90
12688;DHT22;6408;59.388;17.798;2022-07-23T13:20:58;17.50;99.90
12688;DHT22;6408;59.388;17.798;2022-07-23T13:23:26;17.50;99.90
12688;DHT22;6408;59.388;17.798;2022-07-23T13:25:53;17.60;99.90
12688;DHT22;6408;59.388;17.798;2022-07-23T13:28:21;17.60;99.90
12688;DHT22;6408;59.388;17.798;2022-07-23T13:30:50;17.60;99.90
12688;DHT22;6408;59.388;17.798;2022-07-23T13:33:18;17.60;99.90
12688;DHT22;6408;59.388;17.798;2022-07-23T13:35:45;17.60;99.90
12688;DHT22;6408;59.388;17.798;2022-07-23T13:38:13;17.60;99.90
12688;DHT22;6408;59.388;17.798;2022-07-23T13:40:42;17.60;99.90
12688;DHT22;6408;59.388;17.798;2022-07-23T13:43:10;17.70;99.90
12688;DHT22;6408;59.388;17.798;2022-07-23T13:45:38;17.60;99.90
12688;DHT22;6408;59.388;17.798;2022-07-23T13:48:05;17.60;99.90
12688;DHT22;6408;59.388;17.798;2022-07-23T13:50:33;17.60;99.90
12688;DHT22;6408;59.388;17.798;2022-07-23T13:53:01;17.70;99.90
12688;DHT22;6408;59.388;17.798;2022-07-23T13:55:29;17.70;99.90
12688;DHT22;6408;59.388;17.798;2022-07-23T13:57:57;17.70;99.90
12688;DHT22;6408;59.388;17.798;2022-07-23T14:00:24;17.60;99.90
12688;DHT22;6408;59.388;17.798;2022-07-23T14:02:52;17.70;99.90
12688;DHT22;6408;59.388;17.798;2022-07-23T14:05:19;17.70;99.90
12688;DHT22;6408;59.388;17.798;2022-07-23T14:07:46;17.80;99.90
12688;DHT22;6408;59.388;17.798;2022-07-23T14:10:16;17.80;99.90
12688;DHT22;6408;59.388;17.798;2022-07-23T14:12:44;17.90;99.90
12688;DHT22;6408;59.388;17.798;2022-07-23T14:15:12;17.90;99.90
12688;DHT22;6408;59.388;17.798;2022-07-23T14:17:40;18.00;99.90
12688;DHT22;6408;59.388;17.798;2022-07-23T14:20:08;18.00;99.90
12688;DHT22;6408;59.388;17.798;2022-07-23T14:22:35;18.00;99.90
12688;DHT22;6408;59.388;17.798;2022-07-23T14:25:03;18.10;99.90
12688;DHT22;6408;59.388;17.798;2022-07-23T14:27:30;18.10;99.90
12688;DHT22;6408;59.388;17.798;2022-07-23T14:29:58;18.20;99.90
12688;DHT22;6408;59.388;17.798;2022-07-23T14:32:25;18.10;99.90
12688;DHT22;6408;59.388;17.798;2022-07-23T14:34:52;17.90;99.90
12688;DHT22;6408;59.388;17.798;2022-07-23T14:37:19;18.00;99.90
12688;DHT22;6408;59.388;17.798;2022-07-23T14:39:46;18.00;99.90
12688;DHT22;6408;59.388;17.798;2022-07-23T14:42:13;18.00;99.90
12688;DHT22;6408;59.388;17.798;2022-07-23T14:44:40;18.00;99.90
12688;DHT22;6408;59.388;17.798;2022-07-23T14:47:09;17.90;99.90
12688;DHT22;6408;59.388;17.798;2022-07-23T14:49:36;17.80;99.90
12688;DHT22;6408;59.388;17.798;2022-07-23T14:52:05;17.80;99.90
12688;DHT22;6408;59.388;17.798;2022-07-23T14:54:32;17.70;99.90
12688;DHT22;6408;59.388;17.798;2022-07-23T14:57:00;17.60;99.90
12688;DHT22;6408;59.388;17.798;2022-07-23T14:59:28;17.60;99.90
12688;DHT22;6408;59.388;17.798;2022-07-23T15:01:56;17.60;99.90
12688;DHT22;6408;59.388;17.798;2022-07-23T15:04:25;17.60;99.90
12688;DHT22;6408;59.388;17.798;2022-07-23T15:06:52;17.60;99.90
12688;DHT22;6408;59.388;17.798;2022-07-23T15:09:18;17.60;99.90
12688;DHT22;6408;59.388;17.798;2022-07-23T15:11:45;17.70;99.90
12688;DHT22;6408;59.388;17.798;2022-07-23T15:14:12;17.70;99.90
12688;DHT22;6408;59.388;17.798;2022-07-23T15:16:39;17.70;99.90
12688;DHT22;6408;59.388;17.798;2022-07-23T15:19:06;17.60;99.90
12688;DHT22;6408;59.388;17.798;2022-07-23T15:21:34;17.70;99.90
12688;DHT22;6408;59.388;17.798;2022-07-23T15:24:00;17.70;99.90
12688;DHT22;6408;59.388;17.798;2022-07-23T15:26:28;17.80;99.90
12688;DHT22;6408;59.388;17.798;2022-07-23T15:28:55;17.90;99.90
12688;DHT22;6408;59.388;17.798;2022-07-23T15:31:22;17.90;99.90
12688;DHT22;6408;59.388;17.798;2022-07-23T15:33:48;18.00;99.90
12688;DHT22;6408;59.388;17.798;2022-07-23T15:36:17;17.90;99.90
12688;DHT22;6408;59.388;17.798;2022-07-23T15:38:46;17.90;99.90